Time;durP1;ratioP1;P1;durP2;ratioP2;P2;SDS_P1;SDS_P2;PMS_P1;PMS_P2;Temp;Humidity;BMP_temperature;BMP_pressure;BME280_temperature;BME280_humidity;BME280_pressure;Samples;Min_cycle;Max_cycle;Signal;HPM_P1;HPM_P2
2021/07/27 00:00:09;;;;;;;9.97;5.47;;;16.50;99.90;16.10;96772.00;;;;5067005;28;20202;-74
2021/07/27 00:03:00;;;;;;;6.37;4.77;;;16.50;99.90;16.10;96778.00;;;;5067885;28;20560;-73
2021/07/27 00:05:49;;;;;;;6.30;4.80;;;16.50;99.90;15.90;96781.00;;;;5085586;28;20199;-74
2021/07/27 00:08:47;;;;;;;11.57;4.90;;;16.40;99.90;15.80;96768.00;;;;5078776;28;20223;-73
2021/07/27 00:11:36;;;;;;;9.33;5.40;;;16.40;99.90;15.80;96759.00;;;;5065480;28;20222;-73
2021/07/27 00:14:25;;;;;;;9.17;5.83;;;16.30;99.90;15.90;96760.00;;;;5067251;28;20197;-73
2021/07/27 00:17:16;;;;;;;10.50;5.67;;;16.30;99.90;15.80;96768.00;;;;5065836;28;20311;-73
2021/07/27 00:20:06;;;;;;;9.83;6.57;;;16.30;99.90;16.00;96763.00;;;;5070504;28;20204;-73
2021/07/27 00:22:55;;;;;;;7.50;5.97;;;16.30;99.90;15.80;96757.00;;;;5076029;28;20199;-74
2021/07/27 00:25:44;;;;;;;7.60;5.40;;;16.30;99.90;15.80;96759.00;;;;5079956;28;20565;-74
2021/07/27 00:28:33;;;;;;;8.00;5.40;;;16.30;99.90;15.80;96751.00;;;;5069429;28;20275;-73
2021/07/27 00:31:22;;;;;;;7.90;5.40;;;16.30;99.90;15.80;96762.00;;;;5084914;28;20628;-73
2021/07/27 00:34:12;;;;;;;7.23;5.63;;;16.20;99.90;15.70;96768.00;;;;5071679;28;20196;-74
2021/07/27 00:37:01;;;;;;;15.67;5.40;;;16.20;99.90;15.70;96756.00;;;;5064385;28;20243;-73
2021/07/27 00:39:49;;;;;;;8.57;6.00;;;16.20;99.90;15.80;96761.00;;;;5065859;28;20343;-73
2021/07/27 00:42:44;;;;;;;8.33;5.40;;;16.20;99.90;15.90;96763.00;;;;5065216;28;20580;-73
2021/07/27 00:45:33;;;;;;;9.17;5.57;;;16.20;99.90;15.90;96755.00;;;;5065485;28;20202;-74
2021/07/27 00:48:22;;;;;;;9.77;5.80;;;16.20;99.90;16.00;96766.00;;;;5064999;28;20224;-73
2021/07/27 00:51:12;;;;;;;9.97;5.73;;;16.30;99.90;16.10;96770.00;;;;5082088;28;20211;-73
2021/07/27 00:54:01;;;;;;;10.23;5.77;;;16.40;99.90;15.90;96756.00;;;;5079013;28;20215;-73
2021/07/27 00:56:50;;;;;;;6.63;5.20;;;16.40;99.90;15.90;96751.00;;;;5065579;28;20220;-73
2021/07/27 00:59:39;;;;;;;7.50;6.20;;;16.30;99.90;16.00;96745.00;;;;5077775;28;20686;-73
2021/07/27 01:02:30;;;;;;;10.93;5.77;;;16.40;99.90;15.70;96747.00;;;;5070403;28;20215;-73
2021/07/27 01:05:19;;;;;;;9.57;5.57;;;16.30;99.90;15.70;96732.00;;;;5069992;28;20585;-73
2021/07/27 01:08:10;;;;;;;8.83;5.33;;;16.20;99.90;15.80;96746.00;;;;5069796;28;20227;-73
2021/07/27 01:10:59;;;;;;;6.87;4.77;;;16.20;99.90;16.00;96744.00;;;;5105263;28;20202;-73
2021/07/27 01:13:47;;;;;;;13.50;5.57;;;16.20;99.90;16.00;96744.00;;;;5068450;28;20215;-74
2021/07/27 01:16:37;;;;;;;6.87;5.50;;;16.30;99.90;16.10;96726.00;;;;5068530;28;20204;-73
2021/07/27 01:19:38;;;;;;;9.70;6.53;;;16.30;99.90;16.20;96715.00;;;;5069670;28;20711;-73
2021/07/27 01:38:12;;;;;;;9.47;5.40;;;16.40;99.90;16.00;96724.00;;;;5074431;28;20227;-73
2021/07/27 01:41:07;;;;;;;12.10;7.07;;;16.40;99.90;16.00;96739.00;;;;5069898;28;20202;-73
2021/07/27 01:43:55;;;;;;;13.07;5.73;;;16.40;99.90;15.90;96740.00;;;;5068087;28;20224;-73
2021/07/27 01:46:44;;;;;;;10.17;5.73;;;16.40;99.90;16.00;96736.00;;;;5068140;28;20709;-73
2021/07/27 01:49:33;;;;;;;10.27;5.50;;;16.40;99.90;16.00;96734.00;;;;5070121;28;20214;-73
2021/07/27 01:52:24;;;;;;;7.27;5.30;;;16.40;99.90;15.90;96736.00;;;;5084356;28;20227;-73
2021/07/27 01:55:16;;;;;;;10.97;5.80;;;16.30;99.90;15.80;96743.00;;;;5074507;28;20207;-74
2021/07/27 01:58:05;;;;;;;8.10;5.70;;;16.30;99.90;15.90;96746.00;;;;5068298;28;20325;-73
2021/07/27 02:00:55;;;;;;;9.17;7.27;;;16.30;99.90;15.90;96741.00;;;;5068562;28;20211;-73
2021/07/27 02:03:43;;;;;;;11.03;6.33;;;16.20;99.90;15.90;96733.00;;;;5073673;28;20586;-73
2021/07/27 02:06:32;;;;;;;11.57;5.93;;;16.30;99.90;15.90;96728.00;;;;5073373;28;20214;-73
2021/07/27 02:09:21;;;;;;;8.77;6.47;;;16.30;99.90;16.00;96749.00;;;;5069575;28;20208;-73
2021/07/27 02:12:17;;;;;;;7.17;5.80;;;16.30;99.90;15.90;96739.00;;;;5068985;28;20204;-73
2021/07/27 02:15:21;;;;;;;6.93;5.87;;;16.30;99.90;15.90;96749.00;;;;5065322;28;20696;-73
2021/07/27 02:18:11;;;;;;;10.23;6.17;;;16.30;99.90;15.90;96758.00;;;;5068514;28;20235;-73
2021/07/27 02:21:00;;;;;;;7.53;5.33;;;16.30;99.90;15.80;96753.00;;;;5068520;28;20208;-73
2021/07/27 02:23:48;;;;;;;11.30;6.40;;;16.20;99.90;15.70;96756.00;;;;5067505;28;20203;-72
2021/07/27 02:26:39;;;;;;;11.37;6.23;;;16.20;99.90;15.70;96756.00;;;;5067944;28;20199;-73
2021/07/27 02:29:29;;;;;;;8.70;5.93;;;16.20;99.90;15.70;96749.00;;;;5069651;28;20200;-73
2021/07/27 02:32:18;;;;;;;11.07;6.07;;;16.10;99.90;15.70;96761.00;;;;5068447;28;20203;-73
2021/07/27 02:35:09;;;;;;;6.37;5.77;;;16.10;99.90;15.70;96754.00;;;;5068260;28;20211;-73
2021/07/27 02:37:57;;;;;;;7.50;5.87;;;16.10;99.90;15.70;96747.00;;;;5065973;28;20236;-73
2021/07/27 02:40:46;;;;;;;7.97;5.87;;;16.10;99.90;15.80;96750.00;;;;5067756;28;20208;-73
2021/07/27 02:43:35;;;;;;;10.03;6.07;;;16.10;99.90;15.70;96750.00;;;;5077141;28;20199;-73
2021/07/27 02:46:25;;;;;;;8.20;5.70;;;16.10;99.90;15.70;96756.00;;;;5068349;28;20203;-73
2021/07/27 02:49:14;;;;;;;11.13;7.83;;;16.10;99.90;15.80;96749.00;;;;5068566;28;20733;-73
2021/07/27 02:52:03;;;;;;;10.80;6.27;;;16.10;99.90;15.80;96759.00;;;;5069979;28;20206;-73
2021/07/27 02:54:52;;;;;;;7.83;5.93;;;16.10;99.90;15.50;96765.00;;;;5075418;28;20208;-73
2021/07/27 02:57:41;;;;;;;11.87;5.57;;;16.10;99.90;15.50;96769.00;;;;5067978;28;20236;-73
2021/07/27 03:00:30;;;;;;;9.63;6.20;;;16.00;99.90;15.70;96757.00;;;;5067931;28;20200;-73
2021/07/27 03:03:20;;;;;;;13.23;6.03;;;16.00;99.90;15.80;96749.00;;;;5067659;28;20349;-73
2021/07/27 03:06:12;;;;;;;13.23;5.67;;;16.10;99.90;15.70;96755.00;;;;5065046;28;20200;-73
2021/07/27 03:09:14;;;;;;;14.30;5.60;;;16.10;99.90;15.60;96760.00;;;;5065545;28;20234;-73
2021/07/27 03:12:04;;;;;;;10.90;6.70;;;16.00;99.90;15.60;96775.00;;;;5064564;28;20203;-73
2021/07/27 03:14:53;;;;;;;8.83;6.13;;;16.00;99.90;15.40;96777.00;;;;5079612;28;20627;-72
2021/07/27 03:17:42;;;;;;;8.10;5.97;;;16.00;99.90;15.30;96768.00;;;;5064501;28;20227;-72
2021/07/27 03:20:33;;;;;;;8.20;5.60;;;15.90;99.90;15.50;96775.00;;;;5064902;28;20218;-73
2021/07/27 03:23:23;;;;;;;7.17;5.83;;;15.90;99.90;15.50;96783.00;;;;5065517;28;20208;-72
2021/07/27 03:26:12;;;;;;;11.07;7.10;;;15.80;99.90;15.40;96796.00;;;;5067161;28;20255;-73
2021/07/27 03:29:01;;;;;;;6.37;5.67;;;15.90;99.90;15.20;96792.00;;;;5075906;28;20227;-73
2021/07/27 03:31:49;;;;;;;9.83;5.57;;;15.80;99.90;15.30;96794.00;;;;5073774;28;20287;-72
2021/07/27 03:34:38;;;;;;;12.17;6.00;;;15.70;99.90;15.20;96794.00;;;;5068232;28;20241;-72
2021/07/27 03:37:28;;;;;;;8.33;5.50;;;15.70;99.90;15.30;96802.00;;;;5087036;28;20245;-72
2021/07/27 03:40:17;;;;;;;9.63;6.50;;;15.70;99.90;15.30;96804.00;;;;5075540;28;20207;-72
2021/07/27 03:43:06;;;;;;;9.00;5.77;;;15.70;99.90;15.30;96805.00;;;;5073445;28;20693;-73
2021/07/27 03:45:55;;;;;;;13.60;8.30;;;15.70;99.90;15.20;96805.00;;;;5067889;28;20207;-72
2021/07/27 03:48:44;;;;;;;11.47;6.03;;;15.70;99.90;15.30;96801.00;;;;5072516;28;20235;-72
2021/07/27 03:51:32;;;;;;;9.97;6.33;;;15.70;99.90;15.40;96808.00;;;;5088799;28;20200;-73
2021/07/27 03:54:23;;;;;;;11.00;6.77;;;15.70;99.90;15.50;96815.00;;;;5066004;28;20593;-72
2021/07/27 03:57:12;;;;;;;9.13;5.93;;;15.70;99.90;15.60;96815.00;;;;5081470;28;20224;-72
2021/07/27 04:00:01;;;;;;;9.07;5.10;;;15.80;99.90;15.30;96810.00;;;;5066543;28;20208;-73
2021/07/27 04:02:49;;;;;;;7.17;5.70;;;15.90;99.90;15.30;96809.00;;;;5082992;28;20226;-73
2021/07/27 04:05:38;;;;;;;9.20;6.37;;;15.80;99.90;15.40;96815.00;;;;5068149;28;20276;-73
2021/07/27 04:08:27;;;;;;;9.87;6.00;;;15.80;99.90;15.40;96817.00;;;;5080835;28;20207;-72
2021/07/27 04:11:17;;;;;;;8.00;6.27;;;15.80;99.90;15.30;96805.00;;;;5083791;28;20199;-72
2021/07/27 04:14:07;;;;;;;6.80;5.90;;;15.80;99.90;15.30;96801.00;;;;5075390;28;20202;-74
2021/07/27 04:16:56;;;;;;;9.70;6.13;;;15.70;99.90;15.40;96799.00;;;;5079192;28;20310;-74
2021/07/27 04:19:45;;;;;;;9.30;5.83;;;15.70;99.90;15.40;96796.00;;;;5083594;28;20200;-72
2021/07/27 04:22:34;;;;;;;8.63;6.40;;;15.70;99.90;15.60;96787.00;;;;5073604;28;20203;-73
2021/07/27 04:25:22;;;;;;;5.73;5.23;;;15.80;99.90;15.60;96786.00;;;;5065729;28;20206;-73
2021/07/27 04:28:13;;;;;;;10.30;6.40;;;15.80;99.90;15.20;96792.00;;;;5066648;28;20235;-72
2021/07/27 04:31:02;;;;;;;10.33;5.50;;;15.80;99.90;15.20;96792.00;;;;5071133;28;20600;-72
2021/07/27 04:33:51;;;;;;;6.00;5.20;;;15.70;99.90;15.30;96799.00;;;;5073112;28;20233;-72
2021/07/27 04:36:40;;;;;;;11.77;6.57;;;15.70;99.90;15.40;96805.00;;;;5083133;28;20195;-72
2021/07/27 04:39:30;;;;;;;8.83;7.30;;;15.70;99.90;15.40;96812.00;;;;5070912;28;20207;-72
2021/07/27 04:42:18;;;;;;;9.37;5.80;;;15.80;99.90;15.50;96816.00;;;;5069906;28;20636;-74
2021/07/27 04:45:10;;;;;;;6.73;5.97;;;15.80;99.90;15.30;96819.00;;;;5070148;28;20214;-74
2021/07/27 04:47:59;;;;;;;10.07;6.03;;;15.80;99.90;15.30;96822.00;;;;5086533;28;20231;-72
2021/07/27 04:50:48;;;;;;;7.63;5.70;;;15.80;99.90;15.40;96822.00;;;;5089935;28;20199;-72
2021/07/27 04:53:38;;;;;;;9.87;5.63;;;15.80;99.90;15.50;96828.00;;;;5088447;28;20200;-74
2021/07/27 04:56:26;;;;;;;7.37;6.73;;;15.80;99.90;15.50;96833.00;;;;5068947;28;20218;-74
2021/07/27 04:59:15;;;;;;;8.07;6.30;;;15.80;99.90;15.60;96823.00;;;;5069983;28;20196;-73
2021/07/27 05:02:06;;;;;;;7.70;6.23;;;15.90;99.90;15.80;96818.00;;;;5084788;28;20219;-73
2021/07/27 05:04:55;;;;;;;8.63;6.10;;;16.00;99.90;15.90;96821.00;;;;5069282;28;20290;-73
2021/07/27 05:07:45;;;;;;;9.63;6.53;;;16.10;99.90;16.20;96816.00;;;;5067540;28;20226;-72
2021/07/27 05:10:34;;;;;;;10.57;6.43;;;16.20;99.90;16.30;96809.00;;;;5070058;28;20215;-72
2021/07/27 05:13:24;;;;;;;8.63;5.43;;;16.40;99.90;16.30;96817.00;;;;5085164;28;20203;-74
2021/07/27 05:16:16;;;;;;;6.80;5.43;;;16.50;99.90;16.20;96810.00;;;;5069724;28;20204;-76
2021/07/27 05:19:24;;;;;;;9.83;6.77;;;16.50;99.90;16.50;96807.00;;;;5079133;28;20685;-75
2021/07/27 05:22:13;;;;;;;6.80;5.80;;;16.70;99.90;16.50;96806.00;;;;5079209;28;20248;-75
2021/07/27 05:25:06;;;;;;;9.53;6.13;;;16.70;99.90;16.50;96799.00;;;;5068472;28;20303;-75
2021/07/27 05:27:54;;;;;;;12.03;6.57;;;16.80;99.90;16.60;96790.00;;;;5088967;28;20227;-75
2021/07/27 05:30:43;;;;;;;9.13;6.17;;;16.90;99.90;16.90;96795.00;;;;5088998;28;20669;-75
2021/07/27 05:33:32;;;;;;;9.27;6.10;;;17.00;99.90;17.00;96796.00;;;;5077032;28;20210;-76
2021/07/27 05:36:22;;;;;;;8.23;5.27;;;17.10;99.90;16.70;96788.00;;;;5069159;28;20692;-75
2021/07/27 05:39:11;;;;;;;9.23;6.13;;;17.10;99.90;16.70;96791.00;;;;5087424;28;20206;-72
2021/07/27 05:42:00;;;;;;;8.60;6.70;;;17.10;99.90;16.90;96791.00;;;;5088931;28;20195;-72
2021/07/27 05:44:49;;;;;;;8.87;5.97;;;17.10;99.90;16.70;96792.00;;;;5088561;28;20196;-73
2021/07/27 05:47:37;;;;;;;11.47;6.27;;;17.20;99.90;16.70;96797.00;;;;5088603;28;20250;-72
2021/07/27 05:50:26;;;;;;;9.03;6.33;;;17.10;99.90;17.00;96795.00;;;;5094244;28;20700;-72
2021/07/27 05:53:16;;;;;;;11.00;6.67;;;17.20;99.90;17.10;96807.00;;;;5075479;28;20652;-73
2021/07/27 05:56:06;;;;;;;7.20;5.87;;;17.30;99.90;17.20;96808.00;;;;5078597;28;20203;-73
2021/07/27 05:58:55;;;;;;;9.50;5.70;;;17.40;99.90;17.30;96802.00;;;;5079228;28;20560;-72
2021/07/27 06:01:44;;;;;;;10.80;6.73;;;17.40;99.90;17.40;96798.00;;;;5074924;28;20203;-73
2021/07/27 06:04:33;;;;;;;15.17;6.20;;;17.60;99.90;17.70;96813.00;;;;5077150;28;20417;-72
2021/07/27 06:07:21;;;;;;;10.83;8.67;;;17.70;99.90;17.80;96814.00;;;;5077651;28;20226;-73
2021/07/27 06:10:13;;;;;;;9.33;7.20;;;17.80;99.90;17.80;96808.00;;;;5077207;28;20685;-72
2021/07/27 06:13:02;;;;;;;9.37;7.20;;;17.90;99.90;17.90;96814.00;;;;5076534;28;20204;-73
2021/07/27 06:15:51;;;;;;;10.60;6.83;;;18.00;99.90;18.00;96812.00;;;;5078550;28;20225;-73
2021/07/27 06:18:39;;;;;;;10.00;6.40;;;18.10;99.90;18.20;96821.00;;;;5079065;28;20223;-73
2021/07/27 06:21:28;;;;;;;10.03;6.67;;;18.20;99.90;18.30;96822.00;;;;5075394;28;20219;-72
2021/07/27 06:24:17;;;;;;;11.10;6.33;;;18.30;99.90;18.50;96808.00;;;;5076482;28;20219;-71
2021/07/27 06:27:07;;;;;;;7.47;5.63;;;18.50;99.90;18.50;96808.00;;;;5076585;28;20216;-71
2021/07/27 06:29:56;;;;;;;6.73;5.77;;;18.60;99.90;18.70;96807.00;;;;5074629;28;20782;-72
2021/07/27 06:32:45;;;;;;;11.33;6.90;;;18.70;99.90;18.80;96814.00;;;;5076776;28;20559;-72
2021/07/27 06:35:35;;;;;;;7.80;5.70;;;18.90;99.90;18.90;96826.00;;;;5076841;28;20207;-73
2021/07/27 06:38:25;;;;;;;9.17;5.60;;;19.00;99.90;18.80;96833.00;;;;5078958;28;20215;-71
2021/07/27 06:41:14;;;;;;;7.60;6.90;;;19.10;99.90;19.00;96825.00;;;;5077391;28;20708;-72
2021/07/27 06:44:06;;;;;;;8.77;7.37;;;19.10;99.90;19.40;96824.00;;;;5077010;28;20195;-72
2021/07/27 06:46:55;;;;;;;7.43;5.90;;;19.20;99.90;19.40;96832.00;;;;5072720;28;20223;-72
2021/07/27 06:49:44;;;;;;;10.47;6.23;;;19.40;99.90;19.40;96835.00;;;;5075795;28;20309;-73
2021/07/27 06:52:32;;;;;;;17.93;7.63;;;19.60;99.90;19.70;96836.00;;;;5077289;28;20204;-72
2021/07/27 06:55:21;;;;;;;8.00;5.27;;;19.70;99.90;19.80;96836.00;;;;5076955;28;20256;-72
2021/07/27 06:58:12;;;;;;;8.47;6.33;;;19.80;99.90;20.10;96843.00;;;;5076097;28;20270;-72
2021/07/27 07:01:03;;;;;;;9.50;5.87;;;20.00;99.90;20.00;96840.00;;;;5072558;28;20236;-72
2021/07/27 07:03:52;;;;;;;10.73;6.27;;;20.20;99.90;20.50;96831.00;;;;5074202;28;20207;-73
2021/07/27 07:06:42;;;;;;;10.27;7.13;;;20.30;99.90;20.70;96825.00;;;;5075236;28;20203;-73
2021/07/27 07:09:31;;;;;;;13.27;7.10;;;20.50;99.90;20.90;96835.00;;;;5076447;28;20606;-72
2021/07/27 07:12:20;;;;;;;12.93;5.20;;;20.70;99.90;20.90;96826.00;;;;5078504;28;20352;-71
2021/07/27 07:15:10;;;;;;;6.87;5.53;;;20.80;99.90;21.40;96829.00;;;;5073641;28;20207;-72
2021/07/27 07:18:00;;;;;;;6.40;5.37;;;21.10;99.90;21.70;96829.00;;;;5075927;28;20219;-75
2021/07/27 07:20:51;;;;;;;7.93;4.67;;;21.30;99.90;21.90;96831.00;;;;5075160;28;20337;-74
2021/07/27 07:23:39;;;;;;;8.80;5.30;;;21.60;99.90;22.20;96831.00;;;;5076988;28;20214;-75
2021/07/27 07:26:28;;;;;;;12.60;5.77;;;21.90;99.90;22.70;96830.00;;;;5077445;28;20211;-75
2021/07/27 07:29:17;;;;;;;7.83;5.00;;;22.20;99.90;22.90;96828.00;;;;5074614;28;20282;-74
2021/07/27 07:32:07;;;;;;;8.17;5.03;;;22.40;99.90;23.20;96833.00;;;;5073016;28;20192;-74
2021/07/27 07:34:57;;;;;;;6.57;5.10;;;22.70;99.90;23.30;96837.00;;;;5072738;28;20205;-74
2021/07/27 07:37:46;;;;;;;8.43;5.03;;;23.00;99.90;23.50;96833.00;;;;5075932;28;20226;-74
2021/07/27 07:40:35;;;;;;;13.63;5.77;;;23.20;99.90;23.30;96839.00;;;;5073283;28;20207;-71
2021/07/27 07:43:24;;;;;;;8.93;4.57;;;23.30;99.90;23.70;96835.00;;;;5073108;28;20820;-71
2021/07/27 07:46:12;;;;;;;10.37;4.60;;;23.40;99.90;23.80;96830.00;;;;5064806;28;20210;-73
2021/07/27 07:49:01;;;;;;;6.73;5.43;;;23.50;99.90;24.30;96830.00;;;;5073391;28;20204;-73
2021/07/27 07:51:52;;;;;;;8.93;4.67;;;23.80;99.90;24.30;96830.00;;;;5066710;28;20203;-73
2021/07/27 07:54:41;;;;;;;7.23;4.40;;;23.90;99.90;24.20;96830.00;;;;5073239;28;20216;-73
2021/07/27 07:57:31;;;;;;;8.30;4.83;;;24.00;99.90;24.30;96831.00;;;;5070493;28;20229;-72
2021/07/27 08:00:22;;;;;;;10.03;5.13;;;24.10;99.90;24.00;96832.00;;;;5070519;28;20629;-72
2021/07/27 08:03:11;;;;;;;9.63;5.53;;;24.10;99.90;24.10;96826.00;;;;5074461;28;20222;-72
2021/07/27 08:06:00;;;;;;;7.90;6.10;;;24.10;99.90;24.20;96828.00;;;;5073723;28;20216;-72
2021/07/27 08:08:50;;;;;;;7.87;5.13;;;24.10;99.90;24.20;96827.00;;;;5073520;28;20223;-73
2021/07/27 08:11:40;;;;;;;8.20;4.37;;;24.20;99.90;24.40;96821.00;;;;5072557;28;20215;-72
2021/07/27 08:14:29;;;;;;;6.47;4.73;;;24.20;99.90;24.60;96828.00;;;;5072857;28;20196;-73
2021/07/27 08:17:18;;;;;;;8.60;4.20;;;24.30;99.90;24.80;96829.00;;;;5072330;28;20220;-73
2021/07/27 08:20:08;;;;;;;8.57;4.70;;;24.40;99.90;25.00;96823.00;;;;5073370;28;20205;-72
2021/07/27 08:22:59;;;;;;;11.60;4.90;;;24.60;99.90;25.20;96832.00;;;;5072699;28;20641;-72
2021/07/27 08:25:49;;;;;;;5.73;4.50;;;24.80;99.90;25.20;96838.00;;;;5072841;28;20254;-72
2021/07/27 08:28:38;;;;;;;9.97;5.17;;;25.00;99.90;25.10;96842.00;;;;5073392;28;20236;-73
2021/07/27 08:31:27;;;;;;;11.97;4.87;;;25.00;99.90;25.10;96851.00;;;;5070430;28;20220;-72
2021/07/27 08:34:18;;;;;;;7.27;4.50;;;25.10;99.90;25.30;96857.00;;;;5073456;28;20206;-72
2021/07/27 08:37:36;;;;;;;8.23;5.07;;;25.10;99.90;25.30;96858.00;;;;5076096;28;20234;-73
2021/07/27 08:40:25;;;;;;;7.33;3.93;;;25.20;99.90;25.40;96862.00;;;;5073225;28;20205;-73
2021/07/27 08:43:18;;;;;;;7.13;4.17;;;25.20;99.90;25.40;96854.00;;;;5075174;28;20217;-71
2021/07/27 08:46:07;;;;;;;7.63;4.73;;;25.30;99.90;25.30;96858.00;;;;5075068;28;20292;-72
2021/07/27 08:48:58;;;;;;;9.07;4.37;;;25.30;99.90;25.40;96863.00;;;;5074749;28;20212;-72
2021/07/27 08:51:47;;;;;;;9.43;5.13;;;25.30;99.90;25.40;96868.00;;;;5073997;28;20248;-69
2021/07/27 08:54:38;;;;;;;9.57;4.60;;;25.30;99.90;25.40;96880.00;;;;5074278;28;20271;-69
2021/07/27 08:57:27;;;;;;;5.03;4.30;;;25.30;99.90;25.50;96883.00;;;;5067322;28;20236;-72
2021/07/27 09:00:19;;;;;;;6.00;4.70;;;25.40;99.90;25.50;96890.00;;;;5074186;28;20214;-72
2021/07/27 09:03:09;;;;;;;11.00;5.53;;;25.40;99.90;25.50;96895.00;;;;5081894;28;20204;-73
2021/07/27 09:06:07;;;;;;;7.90;4.93;;;25.40;99.90;25.40;96902.00;;;;5077698;28;20201;-70
2021/07/27 09:09:05;;;;;;;6.43;5.00;;;25.40;99.90;25.20;96912.00;;;;5076383;28;20211;-71
2021/07/27 09:11:54;;;;;;;7.23;4.97;;;25.40;99.90;25.10;96915.00;;;;5084917;28;20260;-70
2021/07/27 09:14:44;;;;;;;7.93;4.80;;;25.30;99.90;24.90;96913.00;;;;5083524;28;20202;-70
2021/07/27 09:17:35;;;;;;;8.00;4.30;;;25.20;99.90;24.90;96892.00;;;;5081241;28;20598;-71
2021/07/27 09:20:29;;;;;;;8.33;3.97;;;25.10;99.90;24.80;96891.00;;;;5081839;28;20195;-70
2021/07/27 09:23:20;;;;;;;9.23;4.33;;;25.00;99.90;24.70;96901.00;;;;5091123;28;20217;-70
2021/07/27 09:26:12;;;;;;;9.40;4.43;;;25.00;99.90;24.80;96897.00;;;;5085072;28;20579;-71
2021/07/27 09:29:05;;;;;;;7.63;4.50;;;24.90;99.90;25.00;96903.00;;;;5085585;28;20201;-70
2021/07/27 09:31:54;;;;;;;5.37;4.33;;;24.90;99.90;25.10;96901.00;;;;5084455;28;20221;-70
2021/07/27 09:34:44;;;;;;;5.70;4.33;;;25.00;99.90;25.10;96908.00;;;;5085530;28;20197;-71
2021/07/27 09:37:33;;;;;;;7.30;4.50;;;25.10;99.90;25.10;96907.00;;;;5083973;28;20218;-70
2021/07/27 09:40:22;;;;;;;7.37;4.33;;;25.10;99.90;25.20;96912.00;;;;5079130;28;20201;-69
2021/07/27 09:43:11;;;;;;;6.10;4.83;;;25.20;99.90;25.40;96906.00;;;;5090601;28;20217;-71
2021/07/27 09:46:02;;;;;;;11.47;4.70;;;25.20;99.90;25.40;96905.00;;;;5080597;28;20210;-70
2021/07/27 09:48:51;;;;;;;7.63;4.20;;;25.20;99.90;25.50;96900.00;;;;5084351;28;20222;-70
2021/07/27 09:51:42;;;;;;;6.77;4.20;;;25.40;99.90;25.40;96907.00;;;;5082611;28;20217;-70
2021/07/27 09:54:30;;;;;;;5.27;4.43;;;25.40;99.90;25.60;96925.00;;;;5081673;28;20210;-70
2021/07/27 09:57:19;;;;;;;9.60;5.53;;;25.20;99.90;25.60;96918.00;;;;5075105;28;20222;-70
2021/07/27 10:00:11;;;;;;;7.83;4.73;;;25.50;99.90;25.50;96902.00;;;;5081610;28;20416;-70
2021/07/27 10:03:01;;;;;;;6.43;4.30;;;25.50;99.90;25.50;96909.00;;;;5082738;28;20612;-70
2021/07/27 10:05:55;;;;;;;9.27;4.87;;;25.60;99.90;25.50;96903.00;;;;5084686;28;20201;-70
2021/07/27 10:08:55;;;;;;;9.07;4.80;;;25.60;99.90;25.60;96904.00;;;;5083501;28;20233;-72
2021/07/27 10:11:44;;;;;;;8.47;5.23;;;25.60;99.90;25.70;96900.00;;;;5081759;28;20224;-69
2021/07/27 10:14:40;;;;;;;10.33;4.33;;;25.70;99.90;25.90;96890.00;;;;5080697;28;20199;-71
2021/07/27 10:17:29;;;;;;;7.73;4.57;;;25.70;99.90;25.90;96889.00;;;;5088791;28;20238;-70
2021/07/27 10:20:25;;;;;;;6.93;4.67;;;25.80;99.90;26.00;96885.00;;;;5089127;28;20621;-72
2021/07/27 10:23:20;;;;;;;6.07;4.57;;;25.90;99.90;25.70;96875.00;;;;5085051;28;20198;-72
2021/07/27 10:26:10;;;;;;;13.00;5.40;;;25.90;99.90;25.50;96882.00;;;;5082754;28;20229;-72
2021/07/27 10:29:00;;;;;;;8.97;4.07;;;25.80;99.90;25.30;96890.00;;;;5086152;28;20205;-71
2021/07/27 10:31:49;;;;;;;9.70;5.03;;;25.70;99.90;25.10;96892.00;;;;5083992;28;20236;-71
2021/07/27 10:34:40;;;;;;;6.00;4.10;;;25.50;99.90;24.90;96900.00;;;;5090501;28;20658;-72
2021/07/27 10:37:37;;;;;;;11.10;5.80;;;25.40;99.90;25.40;96898.00;;;;5091874;28;20227;-72
2021/07/27 10:40:30;;;;;;;8.13;4.97;;;25.40;99.90;25.70;96887.00;;;;5082678;28;20223;-72
2021/07/27 10:43:27;;;;;;;6.70;5.27;;;25.40;99.90;25.60;96900.00;;;;5076350;28;20202;-70
2021/07/27 10:46:26;;;;;;;8.63;4.80;;;25.60;99.90;25.70;96894.00;;;;5078888;28;20206;-71
2021/07/27 10:49:19;;;;;;;7.07;4.83;;;25.60;99.90;26.10;96880.00;;;;5084915;28;20284;-72
2021/07/27 10:52:08;;;;;;;7.87;5.40;;;25.80;99.90;26.60;96869.00;;;;5084718;28;20227;-71
2021/07/27 10:54:59;;;;;;;8.47;5.50;;;26.00;99.90;26.90;96885.00;;;;5087624;28;20213;-70
2021/07/27 10:57:48;;;;;;;11.00;5.27;;;26.30;99.90;27.10;96868.00;;;;5079618;28;20223;-71
2021/07/27 11:00:39;;;;;;;14.53;6.47;;;26.60;99.90;27.30;96862.00;;;;5080517;28;20217;-70
2021/07/27 11:03:28;;;;;;;10.33;5.23;;;26.90;99.90;28.10;96866.00;;;;5081467;28;20637;-72
2021/07/27 11:06:21;;;;;;;9.83;5.53;;;27.30;99.90;28.90;96851.00;;;;5082689;28;20201;-71
2021/07/27 11:09:12;;;;;;;18.17;6.00;;;27.70;99.90;29.50;96849.00;;;;5081060;28;20919;-70
2021/07/27 11:12:01;;;;;;;9.57;5.80;;;28.20;99.90;29.50;96873.00;;;;5076000;28;20225;-71
2021/07/27 11:14:50;;;;;;;9.77;5.17;;;28.60;99.90;29.10;96867.00;;;;5087391;28;20197;-70
2021/07/27 11:17:46;;;;;;;13.70;6.80;;;28.80;99.90;28.80;96857.00;;;;5083698;28;20228;-70
2021/07/27 11:20:38;;;;;;;10.47;4.93;;;28.70;99.30;28.90;96874.00;;;;5079404;28;20195;-71
2021/07/27 11:23:34;;;;;;;11.57;5.03;;;28.70;99.90;28.50;96845.00;;;;5077317;28;20201;-73
2021/07/27 11:26:23;;;;;;;8.43;5.57;;;28.60;99.50;28.30;96856.00;;;;5092362;28;20205;-75
2021/07/27 11:29:14;;;;;;;8.87;5.63;;;28.50;98.20;28.60;96846.00;;;;5087821;28;20215;-73
2021/07/27 11:32:13;;;;;;;16.67;5.60;;;28.50;99.10;28.50;96831.00;;;;5070890;28;20220;-74
2021/07/27 11:35:05;;;;;;;17.70;5.50;;;28.40;99.10;29.30;96826.00;;;;5096134;28;20201;-73
2021/07/27 11:38:02;;;;;;;12.32;5.20;;;28.60;99.90;29.80;96836.00;;;;5077362;28;20230;-73
2021/07/27 11:41:05;;;;;;;7.53;5.50;;;28.90;98.80;29.90;96863.00;;;;5079041;28;20209;-78
2021/07/27 11:43:58;;;;;;;8.57;6.45;;;29.20;98.10;29.20;96853.00;;;;5084916;28;20204;-76
2021/07/27 11:46:52;;;;;;;6.60;4.57;;;29.30;96.40;29.50;96828.00;;;;5080185;28;20217;-79
2021/07/27 11:49:43;;;;;;;9.63;5.00;;;29.30;95.50;30.40;96794.00;;;;5071349;28;20216;-74
2021/07/27 11:52:36;;;;;;;12.25;5.30;;;29.60;95.70;30.60;96783.00;;;;5085351;28;20228;-74
2021/07/27 11:55:30;;;;;;;10.43;4.93;;;29.90;94.10;31.20;96786.00;;;;5078828;28;20687;-75
2021/07/27 11:58:27;;;;;;;11.05;4.70;;;30.30;93.00;31.40;96771.00;;;;5071781;28;20248;-74
2021/07/27 12:01:16;;;;;;;14.13;5.40;;;30.60;90.80;31.10;96778.00;;;;5083680;28;20201;-74
2021/07/27 12:04:05;;;;;;;8.43;5.47;;;30.80;87.30;30.30;96777.00;;;;5080838;28;20684;-74
2021/07/27 12:06:56;;;;;;;8.65;5.22;;;30.90;83.10;29.80;96773.00;;;;5077365;28;20271;-74
2021/07/27 12:09:47;;;;;;;9.98;4.95;;;30.60;82.70;31.50;96792.00;;;;5077781;28;20199;-74
2021/07/27 12:12:37;;;;;;;10.07;5.40;;;30.70;87.10;32.10;96777.00;;;;5083476;28;20230;-74
2021/07/27 12:15:28;;;;;;;14.50;6.03;;;31.00;84.70;32.50;96757.00;;;;5078318;28;20192;-74
2021/07/27 12:18:17;;;;;;;7.07;4.78;;;31.30;86.00;31.90;96741.00;;;;5079228;28;20228;-74
2021/07/27 12:21:05;;;;;;;27.92;6.72;;;31.60;78.30;32.60;96742.00;;;;5082003;28;20205;-73
2021/07/27 12:23:54;;;;;;;8.88;4.97;;;31.80;78.40;33.30;96741.00;;;;5076657;28;20297;-74
2021/07/27 12:26:44;;;;;;;10.60;5.43;;;32.00;79.30;33.60;96731.00;;;;5081613;28;20206;-74
2021/07/27 12:29:33;;;;;;;9.90;4.80;;;32.40;77.70;33.50;96747.00;;;;5080263;28;20190;-74
2021/07/27 12:32:23;;;;;;;15.35;5.63;;;32.60;72.50;32.60;96755.00;;;;5082006;28;20716;-74
2021/07/27 12:35:21;;;;;;;9.48;5.05;;;32.60;72.20;32.00;96776.00;;;;5080249;28;20187;-74
2021/07/27 12:38:10;;;;;;;17.65;5.80;;;32.40;71.30;31.30;96777.00;;;;5082204;28;20215;-75
2021/07/27 12:40:59;;;;;;;15.73;5.82;;;32.10;70.70;31.90;96778.00;;;;5079791;28;20195;-74
2021/07/27 12:43:49;;;;;;;9.60;4.97;;;32.00;73.30;32.20;96753.00;;;;5080214;28;20214;-75
2021/07/27 12:46:38;;;;;;;11.23;4.80;;;31.90;73.40;33.10;96768.00;;;;5081310;28;20210;-74
2021/07/27 12:49:27;;;;;;;14.43;5.00;;;32.10;75.30;31.10;96781.00;;;;5079867;28;20240;-75